Vliegveld de Kooy, Nederland

9:00 PM CEST op 25 september 2016 (GMT +0200)
De Kooy Navy | | Change Station

Hoogte 3 ft 52.93 °N, 4.78 °E | Updated 5 minutes ago

Overcast
Geheel bewolkt
64 °F
Voelt als 64 °F
N
14
Wind Variabel Wind van WZW

Vandaag
Hoog -- | Laag -- °F
--% Kans op neerslag
Gisteren
Hoog -- | Laag -- °F
Precip. -- inches
Druk 30.06 inches
Zicht 6.2 mijlen
Wolken Licht bewolkt 2600 ft
Licht bewolkt 3200 ft
Geheel bewolkt 11000 ft
Dauwpunt 54 °F
Vochtigheid 68%
Neerslag 0.00 inches
Dikte sneeuw Niet beschikbaar.
7:32 AM 7:31 PM
Afnemende halvemaan, 25% visible
METAR EHKD 251855Z AUTO 25012KT 220V280 9999 SCT026 SCT032 OVC110 18/12 Q1018 BLU
Druk 30.06 inches
Zicht 6.2 mijlen
Wolken Licht bewolkt 2600 ft
Licht bewolkt 3200 ft
Geheel bewolkt 11000 ft
Dauwpunt 54 °F
Vochtigheid 68%
Neerslag 0.00 inches
Dikte sneeuw Niet beschikbaar.
7:32 AM 7:31 PM
Afnemende halvemaan, 25% visible
METAR EHKD 251855Z AUTO 25012KT 220V280 9999 SCT026 SCT032 OVC110 18/12 Q1018 BLU

10-Day Weather Forecast

×

Almanac

Astronomie

Sep. 25, 2016 Opkomst Ondergang
Werkelijke tijd
Burgerlijke schemering
Nautische schemering
Astronomische schemering
Maan
Golflengte van het zichtbare licht
Daglengte
Tomorrow will be .
, % of the Moon is Illuminated

Extremen vandaag

Country Highs Country Lows

Community

WunderPhotos

Upload Photos

1,941,685 foto’s ge-upload!

WunderBlog® & News

Nearby

Luchtkwaliteit

  Luchtkwaliteit LK-index Verontreinigende stof
Not available.

Dikte sneeuw

Station Depth Geometrische hoogte

Aardbevingen

Stad Distance Mag. Time & Date
Minimum magnitude displayed is 2.5.

Watertemperatuur langs de kust

Plaats Temperatuur

Stations

Nabije weerstations

Locatie station Temp. Gevoelstemperatuur Dauwpunt Vochtigheid Wind Precip. Hoogte Geactualiseerd Type